Time;durP1;ratioP1;P1;durP2;ratioP2;P2;SDS_P1;SDS_P2;PMS_P1;PMS_P2;Temp;Humidity;BMP_temperature;BMP_pressure;BME280_temperature;BME280_humidity;BME280_pressure;Samples;Min_cycle;Max_cycle;Signal;HPM_P1;HPM_P2
2023/11/27 00:00:36;;;;;;;15.10;5.45;;;6.00;99.90;;;6.10;77.47;99991.03;5007087;28;20050;-84
2023/11/27 00:03:05;;;;;;;12.93;5.30;;;5.90;99.90;;;6.11;77.68;99983.91;5008812;28;20105;-84
2023/11/27 00:05:32;;;;;;;11.38;5.57;;;6.00;99.90;;;6.18;78.00;99988.22;5011635;28;20509;-84
2023/11/27 00:08:00;;;;;;;12.27;5.68;;;6.00;99.90;;;6.21;78.16;99975.63;5028509;28;20054;-84
2023/11/27 00:10:29;;;;;;;16.13;5.93;;;6.00;99.90;;;6.08;77.58;99979.00;5026871;28;20053;-83
2023/11/27 00:12:58;;;;;;;16.08;5.60;;;5.90;99.90;;;6.10;78.38;99976.97;4996874;28;20069;-83
2023/11/27 00:15:26;;;;;;;14.57;5.80;;;5.90;99.90;;;6.17;78.79;99968.06;5010812;28;20054;-84
2023/11/27 00:17:54;;;;;;;14.02;5.38;;;6.00;99.90;;;6.16;77.86;99970.91;5008375;28;20096;-84
2023/11/27 00:20:22;;;;;;;15.45;5.28;;;6.00;99.90;;;6.07;77.63;99962.31;5008655;28;20050;-84
2023/11/27 00:22:49;;;;;;;16.80;5.70;;;5.90;99.90;;;5.98;77.57;99949.41;5016608;28;20125;-83
2023/11/27 00:25:16;;;;;;;15.23;6.38;;;5.90;99.90;;;5.88;77.76;99965.59;5028815;28;20114;-84
2023/11/27 00:27:45;;;;;;;13.35;5.57;;;5.80;99.90;;;5.95;78.33;99958.53;5030296;28;20065;-84
2023/11/27 00:30:14;;;;;;;16.23;5.28;;;5.90;99.90;;;5.96;77.81;99954.91;5011477;28;20105;-84
2023/11/27 00:32:42;;;;;;;13.70;5.38;;;5.90;99.90;;;5.96;77.71;99954.91;5010245;28;20052;-84
2023/11/27 00:35:09;;;;;;;11.32;5.15;;;5.90;99.90;;;6.00;77.66;99945.53;5011959;28;20046;-84
2023/11/27 00:37:37;;;;;;;14.18;5.78;;;5.90;99.90;;;6.04;78.11;99940.69;5009021;28;20052;-83
2023/11/27 00:40:06;;;;;;;15.57;5.88;;;6.00;99.90;;;6.03;77.76;99931.94;4995019;28;20072;-84
2023/11/27 00:42:33;;;;;;;12.48;5.38;;;5.90;99.90;;;5.98;77.60;99929.06;5011605;28;20038;-84
2023/11/27 00:45:05;;;;;;;15.85;5.70;;;5.90;99.90;;;6.01;77.58;99926.03;5000340;28;20042;-83
2023/11/27 00:47:34;;;;;;;15.18;5.47;;;5.90;99.90;;;5.86;77.24;99920.81;5012980;28;20053;-84
2023/11/27 00:50:03;;;;;;;15.77;5.60;;;5.90;99.90;;;5.91;78.35;99921.09;5004184;28;20530;-84
2023/11/27 00:52:30;;;;;;;12.57;5.45;;;5.90;99.90;;;5.95;77.92;99916.19;4992723;28;20065;-84
2023/11/27 00:54:58;;;;;;;14.88;5.65;;;5.90;99.90;;;5.98;78.30;99913.16;5016624;28;20061;-84
2023/11/27 00:57:25;;;;;;;16.30;5.50;;;5.90;99.90;;;5.97;77.73;99900.16;5003892;28;20038;-83
2023/11/27 00:59:53;;;;;;;10.90;4.93;;;5.90;99.90;;;6.01;78.21;99901.41;5007847;28;20038;-84
2023/11/27 01:02:22;;;;;;;13.35;5.18;;;5.90;99.90;;;6.00;77.94;99897.09;5010117;28;20050;-84
2023/11/27 01:04:49;;;;;;;15.15;5.32;;;5.90;99.90;;;6.05;78.02;99895.50;5009910;28;20050;-84
2023/11/27 01:07:16;;;;;;;16.60;5.55;;;6.00;99.90;;;6.08;77.40;99894.28;5016104;28;20076;-84
2023/11/27 01:09:44;;;;;;;13.85;5.13;;;6.00;99.90;;;5.92;77.58;99883.00;4991293;28;20045;-84
2023/11/27 01:12:11;;;;;;;15.35;5.38;;;5.90;99.90;;;5.92;77.84;99885.66;5007120;28;20572;-83
2023/11/27 01:14:39;;;;;;;13.82;5.40;;;5.90;99.90;;;5.96;77.75;99880.81;5004956;28;20100;-83
2023/11/27 01:17:07;;;;;;;15.25;5.20;;;5.90;99.90;;;6.04;78.08;99875.31;5024739;28;20505;-83
2023/11/27 01:19:38;;;;;;;12.65;4.65;;;6.10;99.90;;;6.07;77.99;99880.25;4995881;28;20068;-84
2023/11/27 01:22:06;;;;;;;11.23;5.68;;;5.90;99.90;;;6.09;77.90;99874.75;5005930;28;20046;-84
2023/11/27 01:24:33;;;;;;;11.30;5.70;;;5.90;99.90;;;6.10;77.97;99871.06;5007853;28;20068;-84
2023/11/27 01:27:01;;;;;;;11.80;5.30;;;6.00;99.90;;;6.05;77.25;99876.13;4974079;28;20128;-84
2023/11/27 01:29:29;;;;;;;11.52;5.30;;;5.90;99.90;;;6.05;77.87;99870.84;5003502;28;20048;-84
2023/11/27 01:31:56;;;;;;;17.48;6.35;;;5.90;99.90;;;5.94;77.68;99856.34;4989802;28;20058;-83
2023/11/27 01:34:24;;;;;;;14.52;5.75;;;5.90;99.90;;;5.90;77.62;99861.22;4989962;28;20092;-84
2023/11/27 01:36:53;;;;;;;12.25;5.22;;;5.90;99.90;;;5.92;77.66;99858.38;5006586;28;20448;-84
2023/11/27 01:39:21;;;;;;;17.27;6.18;;;5.80;99.90;;;5.92;77.73;99847.81;5005918;28;20049;-84
2023/11/27 01:41:48;;;;;;;13.40;5.38;;;5.80;99.90;;;5.86;78.20;99853.84;5023868;28;20049;-84
2023/11/27 01:44:16;;;;;;;13.07;5.65;;;5.80;99.90;;;5.88;78.36;99841.22;4986077;28;20046;-84
2023/11/27 01:46:47;;;;;;;14.10;6.35;;;5.80;99.90;;;5.87;78.51;99842.25;4985990;28;20133;-84
2023/11/27 01:49:18;;;;;;;17.42;5.90;;;5.80;99.90;;;5.87;79.05;99832.47;4974403;28;20065;-83
2023/11/27 01:51:46;;;;;;;14.80;5.63;;;5.80;99.90;;;5.91;78.58;99833.75;5005091;28;20088;-84
2023/11/27 01:54:17;;;;;;;12.98;6.05;;;5.80;99.90;;;5.96;78.62;99827.06;5005666;28;20304;-84
2023/11/27 01:56:49;;;;;;;14.75;5.60;;;5.80;99.90;;;5.95;78.45;99815.63;5006590;28;20048;-84
2023/11/27 01:59:18;;;;;;;14.32;5.88;;;5.80;99.90;;;5.83;78.27;99811.91;5006136;28;20049;-84
2023/11/27 02:01:46;;;;;;;10.60;5.30;;;5.80;99.90;;;5.87;78.86;99807.84;4973014;28;20042;-84
2023/11/27 02:04:13;;;;;;;17.48;6.18;;;5.80;99.90;;;5.94;78.95;99808.72;4989959;28;20049;-84
2023/11/27 02:06:41;;;;;;;13.88;6.25;;;5.80;99.90;;;5.91;79.05;99804.63;5006432;28;20054;-84
2023/11/27 02:09:10;;;;;;;12.77;6.25;;;5.80;99.90;;;5.98;78.56;99798.56;4989884;28;20046;-84
2023/11/27 02:11:48;;;;;;;12.23;5.75;;;5.80;99.90;;;5.96;78.68;99793.47;4989896;28;20050;-84
2023/11/27 02:14:16;;;;;;;13.25;5.70;;;5.80;99.90;;;6.01;78.64;99785.75;5005555;28;20087;-84
2023/11/27 02:16:45;;;;;;;13.65;6.50;;;5.80;99.90;;;6.04;78.71;99777.41;5005525;28;20149;-84
2023/11/27 02:19:14;;;;;;;15.38;6.05;;;5.90;99.90;;;5.97;78.09;99781.84;5005903;28;20606;-84
2023/11/27 02:21:42;;;;;;;10.90;5.85;;;5.80;99.90;;;6.00;78.52;99778.81;4994973;28;20042;-84
2023/11/27 02:24:12;;;;;;;15.55;6.78;;;5.80;99.90;;;5.97;78.43;99776.56;4986433;28;20052;-84
2023/11/27 02:26:40;;;;;;;13.38;6.00;;;5.80;99.90;;;5.90;77.72;99767.75;4986565;28;20509;-84
2023/11/27 02:29:07;;;;;;;12.65;6.32;;;5.80;99.90;;;5.79;78.21;99761.19;5011684;28;20053;-84
2023/11/27 02:31:37;;;;;;;16.15;6.75;;;5.70;99.90;;;5.79;78.27;99757.72;4989444;28;20100;-84
2023/11/27 02:34:05;;;;;;;12.77;6.57;;;5.70;99.90;;;5.69;78.63;99764.19;5023391;28;20429;-84
2023/11/27 02:36:38;;;;;;;12.32;7.10;;;5.60;99.90;;;5.77;78.91;99754.47;5005420;28;20065;-84
2023/11/27 02:39:07;;;;;;;13.57;7.00;;;5.60;99.90;;;5.78;78.91;99754.28;5022546;28;20049;-83
2023/11/27 02:41:38;;;;;;;13.80;6.93;;;5.60;99.90;;;5.76;78.94;99743.09;5005373;28;20065;-84
2023/11/27 02:44:06;;;;;;;13.63;6.60;;;5.60;99.90;;;5.75;78.73;99745.91;4982261;28;20050;-83
2023/11/27 02:46:34;;;;;;;14.02;6.88;;;5.60;99.90;;;5.73;78.69;99732.88;4992481;28;20429;-83
2023/11/27 02:49:01;;;;;;;20.13;7.60;;;5.70;99.90;;;5.53;77.97;99722.22;4989493;28;20061;-84
2023/11/27 02:51:29;;;;;;;15.10;6.97;;;5.60;99.90;;;5.63;79.39;99724.50;5005942;28;20461;-83
2023/11/27 02:53:57;;;;;;;13.85;6.75;;;5.60;99.90;;;5.76;79.27;99713.97;4988713;28;20050;-84
2023/11/27 02:56:25;;;;;;;14.32;6.50;;;5.70;99.90;;;5.84;79.28;99711.13;5024347;28;20042;-84
2023/11/27 02:58:54;;;;;;;16.15;6.65;;;5.70;99.90;;;5.84;78.90;99702.38;5005235;28;20114;-84
2023/11/27 03:01:25;;;;;;;17.67;6.60;;;5.70;99.90;;;5.89;79.02;99706.06;5005672;28;20521;-84
2023/11/27 03:03:53;;;;;;;18.48;6.32;;;5.70;99.90;;;5.83;78.39;99704.22;4989708;28;20070;-84
2023/11/27 03:06:20;;;;;;;16.83;6.65;;;5.70;99.90;;;5.79;78.54;99695.03;5003980;28;20050;-83
2023/11/27 03:08:48;;;;;;;16.95;7.00;;;5.70;99.90;;;5.89;78.84;99689.38;5022754;28;20042;-84
2023/11/27 03:11:16;;;;;;;15.43;6.43;;;5.80;99.90;;;5.91;78.76;99693.50;4990306;28;20054;-84
2023/11/27 03:13:43;;;;;;;13.35;6.43;;;5.70;99.90;;;5.94;78.81;99684.31;5007607;28;20053;-84
2023/11/27 03:16:15;;;;;;;12.93;6.32;;;5.80;99.90;;;5.97;78.72;99680.47;5026316;28;20048;-83
2023/11/27 03:18:43;;;;;;;14.27;6.88;;;5.80;99.90;;;5.96;78.50;99676.22;4992685;28;20073;-83
2023/11/27 03:21:21;;;;;;;15.50;6.47;;;5.80;99.90;;;5.85;78.02;99670.44;5026458;28;20088;-84
2023/11/27 03:23:49;;;;;;;13.30;6.15;;;5.70;99.90;;;5.83;78.40;99672.47;5021645;28;20046;-84
2023/11/27 03:26:20;;;;;;;12.60;6.15;;;5.70;99.90;;;5.86;78.09;99671.28;5021571;28;20085;-84
2023/11/27 03:28:47;;;;;;;12.68;6.13;;;5.80;99.90;;;5.88;78.05;99670.03;5012352;28;20394;-84
2023/11/27 03:31:16;;;;;;;14.10;6.28;;;5.70;99.90;;;5.91;78.20;99663.53;5008940;28;20046;-84
2023/11/27 03:33:44;;;;;;;12.15;5.50;;;5.70;99.90;;;5.92;78.33;99651.97;4992384;28;20053;-84
2023/11/27 03:36:12;;;;;;;14.15;5.68;;;5.80;99.90;;;5.96;78.08;99647.91;5025785;28;20092;-84
2023/11/27 03:38:39;;;;;;;13.15;6.28;;;5.80;99.90;;;5.98;78.25;99643.22;4975199;28;20054;-84
2023/11/27 03:41:08;;;;;;;14.15;6.05;;;5.80;99.90;;;5.98;77.87;99637.94;5008890;28;20057;-84
2023/11/27 03:43:35;;;;;;;10.15;5.50;;;5.80;99.90;;;6.00;77.76;99643.81;5008332;28;20046;-84
2023/11/27 03:46:04;;;;;;;10.15;5.22;;;5.80;99.90;;;6.00;78.01;99635.88;4960253;28;20050;-84
2023/11/27 03:48:33;;;;;;;12.43;6.15;;;5.80;99.90;;;6.05;78.23;99622.03;5019946;28;20073;-83
2023/11/27 03:51:01;;;;;;;13.60;6.63;;;5.80;99.90;;;6.04;78.10;99629.16;4991965;28;20049;-83
2023/11/27 03:53:29;;;;;;;12.90;6.43;;;5.80;99.90;;;6.07;78.29;99622.66;5007686;28;20600;-83
2023/11/27 03:55:57;;;;;;;14.55;6.88;;;5.80;99.90;;;5.97;77.99;99620.44;5008739;28;20046;-84
2023/11/27 03:58:24;;;;;;;12.32;6.45;;;5.80;99.90;;;5.96;78.15;99610.84;5026429;28;20073;-84
2023/11/27 04:00:52;;;;;;;14.30;6.65;;;5.80;99.90;;;5.96;78.18;99610.84;5025732;28;20038;-84
2023/11/27 04:03:20;;;;;;;14.90;8.05;;;5.80;99.90;;;6.02;78.26;99603.94;4989627;28;20043;-84
2023/11/27 04:05:51;;;;;;;19.60;7.82;;;5.80;99.90;;;5.93;77.78;99598.03;5017916;28;20038;-84
2023/11/27 04:08:18;;;;;;;14.60;6.70;;;5.80;99.90;;;5.95;78.10;99598.63;5004321;28;20042;-84
2023/11/27 04:10:46;;;;;;;15.80;7.10;;;5.80;99.90;;;5.96;78.04;99592.34;4972427;28;20069;-83
2023/11/27 04:13:13;;;;;;;14.95;7.03;;;5.80;99.90;;;5.85;78.17;99598.19;4991453;28;20038;-84
2023/11/27 04:15:42;;;;;;;15.10;7.70;;;5.70;99.90;;;5.72;78.23;99593.69;5007390;28;20053;-84
2023/11/27 04:18:10;;;;;;;11.73;6.88;;;5.70;99.90;;;5.83;78.83;99582.50;5007807;28;20057;-83
2023/11/27 04:20:38;;;;;;;13.13;7.68;;;5.70;99.90;;;5.83;78.59;99587.00;5007580;28;20066;-84
2023/11/27 04:23:07;;;;;;;14.70;7.53;;;5.70;99.90;;;5.84;78.28;99575.38;5025102;28;20052;-84
2023/11/27 04:25:35;;;;;;;16.85;7.72;;;5.70;99.90;;;5.60;77.81;99579.41;5007365;28;20045;-84
2023/11/27 04:28:02;;;;;;;14.38;8.43;;;5.60;99.90;;;5.69;79.00;99565.00;4992201;28;20050;-84
2023/11/27 04:30:31;;;;;;;13.70;7.40;;;5.60;99.90;;;5.83;79.32;99573.75;5007896;28;20034;-84
2023/11/27 04:32:58;;;;;;;16.90;7.10;;;5.70;99.90;;;5.82;78.78;99566.84;5025798;28;20054;-84
2023/11/27 04:35:26;;;;;;;18.35;7.63;;;5.70;99.90;;;5.84;78.74;99554.22;5007619;28;20046;-83
2023/11/27 04:37:54;;;;;;;18.70;7.78;;;5.70;99.90;;;5.84;78.77;99556.88;5025213;28;20413;-84
2023/11/27 04:40:23;;;;;;;14.88;7.72;;;5.70;99.90;;;5.85;78.70;99553.19;4991687;28;20041;-84
2023/11/27 04:42:52;;;;;;;12.32;6.75;;;5.70;99.90;;;5.89;79.02;99541.19;4991676;28;20054;-84
2023/11/27 04:45:20;;;;;;;12.70;6.97;;;5.70;99.90;;;5.94;78.80;99547.53;5008186;28;20048;-84
2023/11/27 04:47:47;;;;;;;13.48;7.07;;;5.70;99.90;;;5.85;78.16;99537.31;5007199;28;20069;-84
2023/11/27 04:50:15;;;;;;;12.48;7.13;;;5.70;99.90;;;5.92;79.07;99531.06;5024349;28;20477;-84
2023/11/27 04:52:43;;;;;;;14.80;7.43;;;5.70;99.90;;;5.97;78.60;99527.00;5006513;28;20114;-84
2023/11/27 04:55:11;;;;;;;13.40;7.38;;;5.70;99.90;;;5.92;78.60;99524.94;5007279;28;20502;-84
2023/11/27 04:57:40;;;;;;;17.38;7.43;;;5.70;99.90;;;5.86;78.34;99520.44;5007273;28;20105;-84
2023/11/27 05:00:09;;;;;;;18.30;8.05;;;5.70;99.90;;;5.90;78.50;99516.34;5002483;28;20046;-84
2023/11/27 05:02:36;;;;;;;16.00;8.35;;;5.70;99.90;;;5.80;78.27;99502.72;4999739;28;20061;-87
2023/11/27 05:05:05;;;;;;;18.95;7.57;;;5.70;99.90;;;5.77;78.41;99503.97;4984635;28;20051;-85
2023/11/27 05:07:33;;;;;;;22.88;8.73;;;5.60;99.90;;;5.77;78.30;99489.91;5016675;28;20045;-80
2023/11/27 05:10:00;;;;;;;15.35;7.47;;;5.60;99.90;;;5.73;78.49;99493.97;5019465;28;20046;-83
2023/11/27 05:12:28;;;;;;;17.95;9.15;;;5.60;99.90;;;5.68;78.30;99479.53;5001993;28;20107;-83
2023/11/27 05:14:57;;;;;;;19.17;9.27;;;5.60;99.90;;;5.76;78.85;99475.03;4985181;28;20046;-83
2023/11/27 05:17:24;;;;;;;20.13;9.93;;;5.60;99.90;;;5.82;78.63;99471.59;5012113;28;20073;-84
2023/11/27 05:19:52;;;;;;;13.48;7.95;;;5.70;99.90;;;5.73;78.50;99463.06;4979631;28;20111;-83
2023/11/27 05:22:19;;;;;;;15.95;7.72;;;5.60;99.90;;;5.77;78.74;99460.81;5017387;28;20069;-84
2023/11/27 05:24:47;;;;;;;16.75;7.78;;;5.70;99.90;;;5.81;78.55;99449.63;5016265;28;20038;-85
2023/11/27 05:27:14;;;;;;;13.00;7.65;;;5.70;99.90;;;5.86;78.66;99447.19;5016117;28;20053;-83
2023/11/27 05:29:42;;;;;;;16.38;8.00;;;5.70;99.90;;;5.88;78.62;99436.38;5012228;28;20045;-83
2023/11/27 05:32:11;;;;;;;16.70;8.18;;;5.70;99.90;;;5.55;77.20;99429.28;4980587;28;20465;-84
2023/11/27 05:34:39;;;;;;;17.67;8.00;;;5.60;99.90;;;5.65;78.18;99424.38;4982289;28;20064;-84
2023/11/27 05:37:08;;;;;;;16.67;7.72;;;5.60;99.90;;;5.53;77.88;99419.94;4966807;28;20054;-84
2023/11/27 05:39:37;;;;;;;16.95;7.60;;;5.50;99.90;;;5.59;78.27;99419.91;5016631;28;20563;-84
2023/11/27 05:42:05;;;;;;;11.98;7.00;;;5.50;99.90;;;5.71;78.51;99420.13;5011820;28;20050;-86
2023/11/27 05:44:32;;;;;;;16.05;7.32;;;5.60;99.90;;;5.61;77.77;99403.84;5018327;28;20046;-84
2023/11/27 05:47:00;;;;;;;16.52;7.03;;;5.50;99.90;;;5.67;78.21;99401.22;4976814;28;20117;-84
2023/11/27 05:49:31;;;;;;;15.00;7.30;;;5.50;99.90;;;5.69;78.41;99388.56;4992816;28;20062;-84
2023/11/27 05:51:59;;;;;;;12.80;6.45;;;5.50;99.90;;;5.57;78.10;99377.00;5004926;28;20105;-84
2023/11/27 05:54:27;;;;;;;15.10;6.55;;;5.50;99.90;;;5.67;78.43;99374.75;4991889;28;20050;-84
2023/11/27 05:56:55;;;;;;;11.63;6.28;;;5.50;99.90;;;5.69;78.16;99370.06;5008480;28;20053;-85
2023/11/27 05:59:23;;;;;;;15.43;6.47;;;5.60;99.90;;;5.62;77.27;99361.34;5020248;28;20560;-86
2023/11/27 06:01:53;;;;;;;12.23;6.22;;;5.50;99.90;;;5.59;78.06;99353.81;4998740;28;20042;-84
2023/11/27 06:04:21;;;;;;;14.10;6.00;;;5.50;99.90;;;5.56;77.36;99343.66;5003296;28;20038;-84
2023/11/27 06:06:50;;;;;;;16.17;7.38;;;5.50;99.90;;;5.48;77.06;99343.88;4910706;29;20047;-84
2023/11/27 06:09:18;;;;;;;14.45;6.70;;;5.60;99.90;;;5.34;78.13;99348.34;4926764;29;20048;-85
2023/11/27 06:11:46;;;;;;;15.13;6.43;;;5.30;99.90;;;5.25;77.71;99339.00;4936301;29;20099;-84
2023/11/27 06:14:14;;;;;;;14.65;6.40;;;5.30;99.90;;;5.23;78.23;99342.88;4934769;29;20064;-85
2023/11/27 06:16:42;;;;;;;13.18;6.15;;;5.30;99.90;;;5.16;78.71;99332.28;4953560;29;20057;-85
2023/11/27 06:19:14;;;;;;;12.90;6.45;;;5.20;99.90;;;5.34;79.23;99321.91;4955685;29;20052;-84
2023/11/27 06:21:42;;;;;;;15.55;6.30;;;5.30;99.90;;;5.32;78.86;99328.41;4940764;29;20047;-87
2023/11/27 06:24:11;;;;;;;13.23;6.22;;;5.30;99.90;;;5.31;78.46;99317.03;4937972;29;20059;-85
2023/11/27 06:26:39;;;;;;;10.60;6.13;;;5.30;99.90;;;5.32;77.88;99313.38;4939712;29;20144;-84
2023/11/27 06:29:07;;;;;;;11.38;5.57;;;5.30;99.90;;;5.35;78.39;99306.84;4939814;29;20052;-85
2023/11/27 06:31:35;;;;;;;15.10;6.28;;;5.30;99.90;;;5.25;78.20;99306.47;4908519;29;20131;-85
2023/11/27 06:34:05;;;;;;;14.95;5.97;;;5.30;99.90;;;5.24;78.96;99300.38;4934747;29;20055;-85
2023/11/27 06:36:32;;;;;;;14.77;6.68;;;5.30;99.90;;;5.14;79.26;99292.88;4925160;29;20051;-85
2023/11/27 06:39:00;;;;;;;11.80;5.68;;;5.30;99.90;;;5.28;79.55;99291.03;4938003;29;20048;-85
2023/11/27 06:41:30;;;;;;;12.38;5.82;;;5.30;99.90;;;5.33;79.04;99271.91;4944161;29;20083;-85
2023/11/27 06:43:58;;;;;;;11.43;5.75;;;5.30;99.90;;;5.32;79.30;99270.25;4976679;28;20493;-85
2023/11/27 06:46:27;;;;;;;17.35;6.03;;;5.40;99.90;;;5.32;79.20;99254.41;5017416;28;20089;-85
2023/11/27 06:48:55;;;;;;;12.70;6.97;;;5.30;99.90;;;5.42;78.97;99246.88;5019806;28;20105;-85
2023/11/27 06:51:23;;;;;;;13.43;6.65;;;5.40;99.90;;;5.39;79.43;99245.44;4987046;28;20038;-85
2023/11/27 06:53:51;;;;;;;13.20;5.57;;;5.30;99.90;;;5.47;79.58;99230.38;5021449;28;20133;-85
2023/11/27 06:56:19;;;;;;;9.88;5.38;;;5.40;99.90;;;5.43;79.04;99222.84;5003498;28;20100;-85
2023/11/27 06:58:48;;;;;;;10.77;5.55;;;5.40;99.90;;;5.54;79.44;99217.94;5019342;28;20081;-85
2023/11/27 07:01:16;;;;;;;16.58;5.78;;;5.40;99.90;;;5.59;79.45;99218.13;4986578;28;20093;-85
2023/11/27 07:03:44;;;;;;;10.98;4.97;;;5.40;99.90;;;5.60;79.72;99202.03;5002288;28;20037;-85
2023/11/27 07:06:12;;;;;;;14.90;5.43;;;5.40;99.90;;;5.63;79.75;99188.41;4982141;28;20093;-85
2023/11/27 07:08:40;;;;;;;11.80;5.25;;;5.50;99.90;;;5.68;79.28;99177.19;5000333;28;20044;-85
2023/11/27 07:11:10;;;;;;;11.90;5.05;;;5.70;99.90;;;5.68;79.09;99185.94;5014985;28;20045;-85
2023/11/27 07:13:38;;;;;;;9.05;4.57;;;5.50;99.90;;;5.64;79.22;99190.00;5019612;28;20042;-85
2023/11/27 07:16:10;;;;;;;11.80;4.82;;;5.50;99.90;;;5.60;79.01;99198.59;5014412;28;20069;-85
2023/11/27 07:18:38;;;;;;;12.50;4.78;;;5.40;99.90;;;5.49;78.84;99202.69;4993722;28;20046;-85
2023/11/27 07:21:06;;;;;;;8.70;5.05;;;5.40;99.90;;;5.59;79.17;99215.47;5019340;28;20076;-85
2023/11/27 07:23:34;;;;;;;10.60;4.55;;;5.40;99.90;;;5.66;78.80;99211.78;4983272;28;20054;-85
2023/11/27 07:26:04;;;;;;;9.95;4.55;;;5.50;99.90;;;5.64;78.66;99210.38;4999730;28;20421;-85
2023/11/27 07:28:32;;;;;;;10.65;4.57;;;5.50;99.90;;;5.61;78.22;99205.50;4992606;28;20132;-85
2023/11/27 07:31:02;;;;;;;10.27;4.72;;;5.50;99.90;;;5.57;78.65;99189.25;5019983;28;20038;-85
2023/11/27 07:33:31;;;;;;;10.40;4.50;;;5.40;99.90;;;5.59;79.24;99191.69;5001784;28;20461;-85
2023/11/27 07:35:59;;;;;;;12.43;4.80;;;5.40;99.90;;;5.51;78.76;99179.50;5006480;28;20045;-85
2023/11/27 07:38:26;;;;;;;8.57;4.38;;;5.40;99.90;;;5.55;79.10;99169.31;4979222;28;20060;-85
2023/11/27 07:40:56;;;;;;;9.05;3.95;;;5.40;99.90;;;5.54;79.33;99165.06;5019010;28;20050;-85
2023/11/27 07:43:23;;;;;;;9.82;3.90;;;5.40;99.90;;;5.28;78.67;99168.63;5001542;28;20046;-85
2023/11/27 07:45:51;;;;;;;8.98;3.97;;;5.30;99.90;;;5.34;79.32;99168.59;5000803;28;20046;-85
2023/11/27 07:48:19;;;;;;;10.20;4.70;;;5.30;99.90;;;5.33;79.48;99163.53;5018831;28;20049;-85
2023/11/27 07:50:49;;;;;;;10.35;4.90;;;5.30;99.90;;;5.34;79.39;99167.78;5000217;28;20042;-85
2023/11/27 07:53:20;;;;;;;8.60;4.50;;;5.30;99.90;;;5.38;79.13;99161.06;5018962;28;20096;-85
2023/11/27 07:55:48;;;;;;;9.20;4.03;;;5.30;99.90;;;5.43;79.79;99154.13;4999422;28;20034;-85
2023/11/27 07:58:15;;;;;;;7.93;4.03;;;5.30;99.90;;;5.53;80.27;99150.22;4999996;28;20081;-85
2023/11/27 08:00:43;;;;;;;9.88;4.40;;;5.40;99.90;;;5.54;79.27;99135.97;4999649;28;20050;-85
2023/11/27 08:03:12;;;;;;;7.93;3.67;;;5.40;99.90;;;5.46;79.15;99139.66;4999110;28;20072;-85
2023/11/27 08:05:40;;;;;;;7.80;4.10;;;5.40;99.90;;;5.51;79.82;99131.91;5010083;28;20037;-85
2023/11/27 08:08:10;;;;;;;7.28;3.47;;;5.40;99.90;;;5.55;79.90;99119.06;4994319;28;20504;-85
2023/11/27 08:10:39;;;;;;;8.57;3.40;;;5.40;99.90;;;5.46;79.34;99107.13;5016484;28;20137;-85
2023/11/27 08:13:08;;;;;;;5.22;3.10;;;5.40;99.90;;;5.40;79.45;99106.13;5018467;28;20045;-85
2023/11/27 08:15:36;;;;;;;7.82;3.33;;;5.30;99.90;;;5.47;79.80;99092.91;5014358;28;20076;-85
2023/11/27 08:18:05;;;;;;;10.55;3.60;;;5.40;99.90;;;5.53;79.54;99089.41;5000030;28;20050;-85
2023/11/27 08:20:35;;;;;;;7.15;3.72;;;5.40;99.90;;;5.55;79.45;99098.72;4983270;28;20044;-85
2023/11/27 08:23:03;;;;;;;5.47;3.08;;;5.40;99.90;;;5.46;79.30;99078.84;4982331;28;20049;-85
2023/11/27 08:25:32;;;;;;;5.35;2.60;;;5.30;99.90;;;5.43;79.39;99074.81;5016575;28;20052;-85
2023/11/27 08:28:02;;;;;;;5.57;2.80;;;5.40;99.90;;;5.43;79.29;99074.00;5000809;28;20046;-85
2023/11/27 08:30:32;;;;;;;6.88;2.72;;;5.30;99.90;;;5.41;78.81;99073.38;5000849;28;20046;-85
2023/11/27 08:33:00;;;;;;;6.50;3.92;;;5.30;99.90;;;5.38;78.99;99071.19;5017596;28;20577;-85
2023/11/27 08:35:33;;;;;;;6.53;3.28;;;5.30;99.90;;;5.31;78.43;99073.84;4997851;28;20053;-85
2023/11/27 08:38:01;;;;;;;9.00;3.15;;;5.30;99.90;;;5.35;79.50;99064.47;4999034;28;20105;-85
2023/11/27 08:40:29;;;;;;;6.10;3.38;;;5.20;99.90;;;5.28;79.11;99062.91;4994211;28;20102;-85
2023/11/27 08:43:00;;;;;;;5.93;2.90;;;5.30;99.90;;;5.38;79.83;99052.66;5018084;28;20045;-85
2023/11/27 08:45:28;;;;;;;;;;;5.20;99.90;;;5.47;79.58;99043.47;4998227;28;20470;-85
2023/11/27 08:47:55;;;;;;;9.40;3.78;;;5.30;99.90;;;5.42;78.91;99043.28;4979873;28;19990;-85
2023/11/27 08:50:27;;;;;;;5.75;3.13;;;5.30;99.90;;;5.39;78.94;99038.44;4983740;28;20053;-85
2023/11/27 08:52:57;;;;;;;6.60;3.67;;;5.30;99.90;;;5.42;79.03;99038.00;5016087;28;20042;-85
2023/11/27 08:55:28;;;;;;;7.00;3.33;;;5.30;99.90;;;5.41;78.68;99034.53;4999557;28;20046;-85
2023/11/27 08:57:59;;;;;;;;;;;5.30;99.90;;;5.42;78.17;99035.38;5018074;28;20056;-85
2023/11/27 09:00:28;;;;;;;9.05;4.28;;;5.30;99.90;;;5.39;77.87;99023.38;4989444;28;19973;-85
2023/11/27 09:02:57;;;;;;;7.30;2.70;;;5.20;99.90;;;5.08;78.69;99020.72;4998162;28;20137;-85
2023/11/27 09:05:26;;;;;;;4.90;2.60;;;5.10;99.90;;;5.10;78.81;99016.03;4992563;28;20038;-85
2023/11/27 09:07:55;;;;;;;5.82;2.88;;;5.10;99.90;;;5.16;79.35;99017.81;4981393;28;20049;-85
2023/11/27 09:10:24;;;;;;;6.10;3.67;;;5.10;99.90;;;5.25;78.87;99007.81;4989294;28;20072;-85
2023/11/27 09:12:52;;;;;;;8.27;4.63;;;5.10;99.90;;;5.11;78.36;98996.50;4999532;28;20043;-85
2023/11/27 09:15:22;;;;;;;6.50;3.55;;;5.10;99.90;;;5.08;78.18;98999.59;4999253;28;20462;-85
2023/11/27 09:17:49;;;;;;;5.72;3.10;;;5.10;99.90;;;5.13;79.27;98986.53;5002088;28;20130;-85
2023/11/27 09:20:18;;;;;;;4.40;2.80;;;5.00;99.90;;;5.09;79.36;98991.44;4982200;28;20138;-85
2023/11/27 09:22:46;;;;;;;4.38;2.50;;;5.00;99.90;;;5.03;78.30;98996.75;4998199;28;20048;-85
2023/11/27 09:25:15;;;;;;;5.35;2.65;;;5.00;99.90;;;4.93;79.12;98993.75;4983543;28;20049;-85
2023/11/27 09:27:43;;;;;;;4.80;2.53;;;4.90;99.90;;;5.03;79.49;98992.28;4994043;28;20075;-85
2023/11/27 09:30:12;;;;;;;5.30;2.58;;;5.00;99.90;;;5.12;79.20;98979.63;4981182;28;20121;-85
2023/11/27 09:32:41;;;;;;;5.47;2.60;;;5.00;99.90;;;5.05;79.10;98969.09;5016825;28;20042;-85
2023/11/27 09:35:12;;;;;;;4.35;2.53;;;5.00;99.90;;;5.12;79.17;98969.03;4983332;28;20057;-85
2023/11/27 09:37:40;;;;;;;5.33;2.73;;;5.00;99.90;;;5.16;78.77;98967.59;5016056;28;20579;-85
2023/11/27 09:40:10;;;;;;;4.13;2.20;;;5.10;99.90;;;5.07;79.07;98956.47;5013238;28;20046;-85
2023/11/27 09:42:38;;;;;;;3.70;2.03;;;5.00;99.90;;;5.00;78.79;98954.91;4998349;28;20100;-85
2023/11/27 09:45:10;;;;;;;4.53;2.40;;;4.90;99.90;;;5.02;78.55;98956.28;5016038;28;20044;-85
2023/11/27 09:47:38;;;;;;;4.85;2.72;;;5.00;99.90;;;5.00;78.34;98953.06;4985791;28;20461;-85
2023/11/27 09:50:12;;;;;;;3.55;2.03;;;4.90;99.90;;;4.99;78.89;98948.00;5018073;28;20044;-85
2023/11/27 09:52:56;;;;;;;5.70;2.92;;;4.90;99.90;;;5.02;79.10;98937.81;5002550;28;20497;-85
2023/11/27 09:55:25;;;;;;;5.75;2.80;;;4.90;99.90;;;5.08;79.14;98931.69;4987842;28;20120;-85
2023/11/27 09:57:53;;;;;;;5.57;2.75;;;5.00;99.90;;;5.11;78.84;98938.38;4986717;28;20046;-85
2023/11/27 10:00:21;;;;;;;4.50;2.65;;;5.00;99.90;;;4.70;78.56;98928.25;5000336;28;20049;-85
2023/11/27 10:02:49;;;;;;;8.23;3.03;;;4.80;99.90;;;4.74;79.73;98924.19;5016528;28;20454;-85
2023/11/27 10:05:21;;;;;;;7.10;2.95;;;4.80;99.90;;;4.93;79.79;98917.97;5018025;28;20441;-86
2023/11/27 10:07:50;;;;;;;3.85;1.92;;;4.80;99.90;;;4.98;79.16;98915.50;5003882;28;20053;-85
2023/11/27 10:10:25;;;;;;;3.22;1.88;;;4.90;99.90;;;5.01;79.69;98904.50;4994420;28;20034;-85
2023/11/27 10:12:58;;;;;;;3.40;1.80;;;4.90;99.90;;;4.98;79.17;98885.59;5024131;28;20045;-85
2023/11/27 10:15:27;;;;;;;3.95;2.00;;;4.90;99.90;;;5.01;78.91;98880.72;5020632;28;20080;-85
2023/11/27 10:17:56;;;;;;;3.88;1.95;;;5.00;99.90;;;4.89;79.11;98885.06;4997819;28;20042;-85
2023/11/27 10:20:26;;;;;;;3.85;2.00;;;4.90;99.90;;;4.94;79.64;98877.31;5007532;28;20045;-85
2023/11/27 10:22:57;;;;;;;3.65;1.77;;;4.90;99.90;;;5.07;79.73;98871.13;5016898;28;20058;-85
2023/11/27 10:25:24;;;;;;;4.35;1.88;;;5.00;99.90;;;4.96;79.04;98869.16;5021734;28;20054;-85
2023/11/27 10:28:00;;;;;;;3.47;1.77;;;4.90;99.90;;;4.91;78.88;98862.69;5021693;28;20421;-85
2023/11/27 10:30:30;;;;;;;3.92;2.10;;;4.90;99.90;;;4.86;78.85;98859.09;5007365;28;20045;-85
2023/11/27 10:32:59;;;;;;;4.45;1.85;;;4.90;99.90;;;4.65;79.48;98850.47;5022303;28;20140;-85